To NAV CANADA Home Page Login to a new session Search on AWWS site Feedback and Comments Disclaimer Vers la page française équivalente Tips FAQ What's new on the site To the Forecasts and Observations / NOTAM section To "File a Flight Plan" website Publications and other links Update of the User's profile FIC Telephone Numbers My Weather Data Folder Route Weather Data Regional Weather Data Local Weather Data To the Forecasts and Observations / NOTAM section
Request Generated 03/28/2015 at 16:00:52 UTC . Weather information available at that time is displayed.

METAR/TAF

RANKIN INLET/NU    

SPECI CYRT 281526Z 08015G22KT 2SM BLSN OVC050 M19/M22 A2956 RMK SC8
SLP013=
METAR CYRT 281500Z 08017G23KT 10SM DRSN OVC050 M19/M21 A2955 RMK SC8
SLP012=
METAR CYRT 281400Z 09013KT 10SM BKN050 M18/M21 A2956 RMK SC7 SLP013=
METAR CYRT 281300Z 09009G15KT 15SM FEW015 BKN050 M19/M22 A2956 RMK
SC1SC7 SC TR SLP014=

TAF CYRT 281138Z 2812/2824 07015KT P6SM SCT015 BKN040 TEMPO 2812/2815
4SM -SN BKN015 OVC040
FM281500 07020KT P6SM SCT015 BKN040 TEMPO 2815/2820 2SM -SN BLSN
BKN015 OVC040
FM282000 06015KT P6SM SCT040
RMK NXT FCST BY 281800Z=
Your time UTC time
Weather data provided by Environment Canada and NAV CANADA